Time;durP1;ratioP1;P1;durP2;ratioP2;P2;SDS_P1;SDS_P2;PMS_P1;PMS_P2;Temp;Humidity;BMP_temperature;BMP_pressure;BME280_temperature;BME280_humidity;BME280_pressure;Samples;Min_cycle;Max_cycle;Signal;HPM_P1;HPM_P2
2021/06/10 00:00:00;;;;;;;13.18;11.77;;;;;;;17.52;74.00;101371.78;5020289;28;20821;-84
2021/06/10 00:02:27;;;;;;;14.23;12.07;;;;;;;17.48;74.21;101375.44;5022438;28;20037;-85
2021/06/10 00:04:54;;;;;;;15.35;13.73;;;;;;;17.46;74.46;101379.91;4959268;28;20149;-83
2021/06/10 00:07:21;;;;;;;16.30;14.75;;;;;;;17.44;74.36;101387.00;5022439;28;20108;-83
2021/06/10 00:09:49;;;;;;;16.27;14.57;;;;;;;17.42;74.81;101380.91;4985500;28;20857;-83
2021/06/10 00:12:19;;;;;;;15.77;13.88;;;;;;;17.41;74.52;101380.03;4991950;28;20088;-84
2021/06/10 00:14:49;;;;;;;13.50;12.15;;;;;;;17.39;74.68;101378.31;5006319;28;20579;-84
2021/06/10 00:17:19;;;;;;;13.90;12.55;;;;;;;17.38;74.61;101376.56;5001951;28;21504;-84
2021/06/10 00:19:45;;;;;;;14.40;12.68;;;;;;;17.38;74.64;101376.56;4973654;28;20516;-86
2021/06/10 00:22:15;;;;;;;15.90;14.23;;;;;;;17.35;74.84;101374.88;4989617;28;20417;-85
2021/06/10 00:24:41;;;;;;;16.90;14.05;;;;;;;17.35;74.96;101372.22;5006779;28;20065;-83
2021/06/10 00:27:08;;;;;;;14.65;13.25;;;;;;;17.34;74.77;101370.53;5004237;28;20136;-84
2021/06/10 00:29:34;;;;;;;14.52;13.10;;;;;;;17.31;75.17;101365.28;5014011;28;20568;-84
2021/06/10 00:32:02;;;;;;;16.00;14.27;;;;;;;17.27;75.04;101368.94;5005188;28;20136;-84
2021/06/10 00:34:28;;;;;;;15.65;14.13;;;;;;;17.21;75.39;101364.66;5007288;28;20085;-85
2021/06/10 00:36:55;;;;;;;14.73;12.82;;;;;;;17.14;75.51;101357.78;5023998;28;20058;-86
2021/06/10 00:39:23;;;;;;;12.63;11.52;;;;;;;17.08;75.67;101360.56;4975499;28;20068;-84
2021/06/10 00:41:49;;;;;;;15.88;14.27;;;;;;;17.03;76.22;101369.50;4986481;28;20082;-85
2021/06/10 00:44:16;;;;;;;16.80;15.00;;;;;;;17.01;76.31;101366.03;5009734;28;20057;-83
2021/06/10 00:46:45;;;;;;;16.88;15.13;;;;;;;17.00;76.59;101363.41;4999555;28;20112;-85
2021/06/10 00:49:11;;;;;;;16.13;14.50;;;;;;;16.99;76.52;101365.19;5026504;28;20164;-83
2021/06/10 00:51:40;;;;;;;17.42;14.80;;;;;;;16.96;76.46;101361.75;4976799;28;20084;-87
2021/06/10 00:54:08;;;;;;;15.13;13.63;;;;;;;16.91;76.81;101364.50;5006981;28;20137;-85
2021/06/10 00:56:36;;;;;;;15.82;14.32;;;;;;;16.88;76.97;101372.47;5023619;28;20056;-85
2021/06/10 00:59:03;;;;;;;12.65;11.45;;;;;;;16.84;77.40;101376.09;4987843;28;20503;-85
2021/06/10 01:01:29;;;;;;;17.35;15.55;;;;;;;16.82;77.58;101372.63;4990090;28;20079;-86
2021/06/10 01:03:55;;;;;;;15.15;13.68;;;;;;;16.78;77.70;101363.00;4972045;28;20084;-84
2021/06/10 01:06:26;;;;;;;13.70;12.30;;;;;;;16.72;77.90;101369.31;5025483;28;20048;-86
2021/06/10 01:09:02;;;;;;;14.68;13.18;;;;;;;16.70;78.25;101368.50;5005372;28;20065;-87
2021/06/10 01:12:05;;;;;;;15.75;12.77;;;;;;;16.68;78.63;101362.38;4974757;28;20053;-86
2021/06/10 01:15:00;;;;;;;17.25;14.85;;;;;;;16.70;78.81;101363.22;4990439;28;20575;-84
2021/06/10 01:17:28;;;;;;;15.10;13.50;;;;;;;16.69;78.72;101362.34;4983989;28;20136;-83
2021/06/10 01:20:00;;;;;;;16.55;14.90;;;;;;;16.69;78.75;101359.69;4976119;28;20049;-86
2021/06/10 01:22:28;;;;;;;16.27;14.57;;;;;;;16.67;78.94;101358.88;4988160;28;21149;-84
2021/06/10 01:25:25;;;;;;;17.73;15.82;;;;;;;16.65;79.10;101362.47;4997012;28;20196;-84
2021/06/10 01:27:58;;;;;;;15.10;13.60;;;;;;;16.58;79.39;101361.69;5017115;28;20055;-84
2021/06/10 01:30:33;;;;;;;17.48;14.43;;;;;;;16.53;79.89;101361.81;4977190;28;20057;-83
2021/06/10 01:33:06;;;;;;;19.63;15.95;;;;;;;16.50;80.04;101359.25;5028414;28;20595;-85
2021/06/10 01:35:37;;;;;;;15.95;14.25;;;;;;;16.48;80.06;101360.19;5007482;28;20117;-84
2021/06/10 01:38:06;;;;;;;18.33;16.42;;;;;;;16.46;80.34;101360.22;5010490;28;20061;-84
2021/06/10 01:40:38;;;;;;;17.63;15.40;;;;;;;16.43;80.54;101362.06;5007869;28;20088;-84
2021/06/10 01:43:09;;;;;;;17.38;15.63;;;;;;;16.39;80.66;101355.97;5010572;28;20519;-84
2021/06/10 01:45:36;;;;;;;14.85;13.50;;;;;;;16.34;80.59;101349.91;5009508;28;20099;-84
2021/06/10 01:48:03;;;;;;;17.23;15.52;;;;;;;16.29;80.80;101349.16;5005657;28;20547;-84
2021/06/10 01:50:31;;;;;;;15.00;13.30;;;;;;;16.23;81.02;101351.91;5014660;28;20049;-86
2021/06/10 01:53:00;;;;;;;18.20;16.35;;;;;;;16.20;80.90;101339.63;5000351;28;20524;-85
2021/06/10 01:55:28;;;;;;;19.98;17.05;;;;;;;16.18;81.11;101344.97;5026552;28;20054;-85
2021/06/10 01:57:57;;;;;;;16.15;14.55;;;;;;;16.16;81.32;101346.75;5025504;28;20908;-85
2021/06/10 02:00:25;;;;;;;15.75;14.20;;;;;;;16.14;81.40;101345.94;5037095;28;20056;-85
2021/06/10 02:02:53;;;;;;;17.65;15.85;;;;;;;16.12;81.44;101333.66;5041639;28;20045;-85
2021/06/10 02:05:23;;;;;;;16.52;14.95;;;;;;;16.10;81.12;101338.09;4985364;28;20061;-85
2021/06/10 02:07:51;;;;;;;16.33;14.63;;;;;;;16.09;81.22;101334.59;4989949;28;20045;-84
2021/06/10 02:10:23;;;;;;;15.05;13.10;;;;;;;16.08;81.42;101334.63;5019231;28;20155;-84
2021/06/10 02:12:49;;;;;;;14.63;13.13;;;;;;;16.03;81.46;101335.59;4990068;28;20508;-85
2021/06/10 02:15:18;;;;;;;15.48;13.98;;;;;;;16.00;81.60;101322.44;5024311;28;20053;-85
2021/06/10 02:17:48;;;;;;;17.13;15.32;;;;;;;16.00;81.40;101322.44;5004417;28;20492;-85
2021/06/10 02:20:20;;;;;;;14.63;13.15;;;;;;;15.98;81.57;101316.34;5019793;28;20138;-85
2021/06/10 02:22:46;;;;;;;21.00;16.75;;;;;;;15.93;81.61;101307.66;5020965;28;20050;-85
2021/06/10 02:25:14;;;;;;;16.65;15.10;;;;;;;15.90;81.70;101312.97;5011580;28;20049;-84
2021/06/10 02:27:42;;;;;;;19.08;16.65;;;;;;;15.88;81.82;101314.78;5010378;28;20143;-84
2021/06/10 02:30:17;;;;;;;15.73;14.10;;;;;;;15.87;81.90;101318.34;5004235;28;20056;-85
2021/06/10 02:32:44;;;;;;;17.65;14.70;;;;;;;15.85;81.60;101313.09;5020746;28;20176;-85
2021/06/10 02:35:12;;;;;;;16.73;15.02;;;;;;;15.84;81.77;101311.34;5002854;28;20484;-85
2021/06/10 02:37:45;;;;;;;16.55;13.90;;;;;;;15.85;81.45;101320.13;5008230;28;20191;-86
2021/06/10 02:40:27;;;;;;;18.10;15.75;;;;;;;15.84;81.85;101323.69;5023167;28;20140;-85
2021/06/10 02:42:57;;;;;;;16.63;14.93;;;;;;;15.81;81.51;101324.63;5007700;28;21211;-85
2021/06/10 02:45:24;;;;;;;16.40;14.68;;;;;;;15.78;81.60;101321.13;5023223;28;20396;-84
2021/06/10 02:47:53;;;;;;;15.57;13.88;;;;;;;15.74;81.57;101322.94;5019723;28;20041;-85
2021/06/10 02:50:19;;;;;;;16.80;14.93;;;;;;;15.73;81.71;101322.97;5042391;28;20467;-85
2021/06/10 02:52:49;;;;;;;17.73;14.52;;;;;;;15.69;81.75;101325.66;5007584;28;21839;-85
2021/06/10 02:55:20;;;;;;;21.73;15.18;;;;;;;15.64;81.92;101330.16;5025015;28;20270;-85
2021/06/10 02:57:54;;;;;;;16.40;13.18;;;;;;;15.61;81.93;101326.72;5041294;28;20060;-85
2021/06/10 03:00:27;;;;;;;13.70;11.32;;;;;;;15.58;81.87;101335.59;5030445;28;20261;-85
2021/06/10 03:02:54;;;;;;;27.13;16.00;;;;;;;15.58;82.09;101322.38;5024573;28;20045;-85
2021/06/10 03:05:27;;;;;;;18.85;15.65;;;;;;;15.58;82.43;101325.03;5019692;28;20191;-84
2021/06/10 03:07:55;;;;;;;25.77;16.67;;;;;;;15.57;82.00;101332.97;5045702;28;20076;-85
2021/06/10 03:10:28;;;;;;;17.42;15.63;;;;;;;15.57;82.27;101328.56;5042709;28;20041;-85
2021/06/10 03:12:56;;;;;;;;;;;;;;;15.56;82.73;101332.09;5023015;28;20053;-84
2021/06/10 03:15:26;;;;;;;17.25;15.45;;;;;;;15.54;82.18;101323.34;5027734;28;19921;-85
2021/06/10 03:17:52;;;;;;;14.40;12.30;;;;;;;15.51;82.36;101329.56;4992076;28;20057;-85
2021/06/10 03:20:27;;;;;;;16.48;13.93;;;;;;;15.48;82.76;101326.94;5022169;28;20057;-85
2021/06/10 03:22:54;;;;;;;19.98;16.48;;;;;;;15.47;82.77;101327.84;4984579;28;20052;-86
2021/06/10 03:25:24;;;;;;;19.35;15.13;;;;;;;15.45;82.73;101320.84;5009127;28;20045;-85
2021/06/10 03:27:53;;;;;;;22.73;16.92;;;;;;;15.46;82.86;101331.41;5028179;28;20053;-85
2021/06/10 03:30:27;;;;;;;17.33;15.73;;;;;;;15.46;82.88;101328.75;5024339;28;20049;-85
2021/06/10 03:32:54;;;;;;;17.77;15.35;;;;;;;15.47;82.88;101322.56;5054000;28;20456;-85
2021/06/10 03:35:22;;;;;;;15.80;14.30;;;;;;;15.49;82.78;101318.13;4975001;28;20050;-85
2021/06/10 03:37:49;;;;;;;16.25;14.55;;;;;;;15.49;82.65;101320.78;5041823;28;20057;-85
2021/06/10 03:40:26;;;;;;;16.67;14.98;;;;;;;15.51;82.95;101326.91;5025246;28;20049;-84
2021/06/10 03:42:53;;;;;;;16.33;14.63;;;;;;;15.52;82.66;101319.84;5017335;28;20474;-85
2021/06/10 03:45:21;;;;;;;17.05;15.10;;;;;;;15.54;82.34;101316.28;5008149;28;20431;-85
2021/06/10 03:47:48;;;;;;;20.65;16.63;;;;;;;15.55;82.08;101311.88;5014014;28;20052;-85
2021/06/10 03:50:16;;;;;;;15.75;14.15;;;;;;;15.58;81.75;101311.81;5005372;28;20073;-85
2021/06/10 03:52:44;;;;;;;13.52;12.13;;;;;;;15.62;81.78;101315.25;5007387;28;20528;-86
2021/06/10 03:55:10;;;;;;;12.60;11.50;;;;;;;15.65;81.38;101321.34;5039090;28;20054;-85
2021/06/10 03:57:38;;;;;;;18.52;14.85;;;;;;;15.71;81.32;101315.09;5038030;28;20128;-85
2021/06/10 04:00:08;;;;;;;15.48;13.73;;;;;;;15.76;80.81;101315.00;4985197;28;20100;-84
2021/06/10 04:02:34;;;;;;;14.30;12.80;;;;;;;15.81;80.52;101313.16;5007284;28;20408;-85
2021/06/10 04:05:00;;;;;;;15.43;13.85;;;;;;;15.85;80.32;101313.09;5023566;28;20099;-85
2021/06/10 04:07:28;;;;;;;16.10;14.23;;;;;;;15.91;80.07;101317.34;5040416;28;20112;-85
2021/06/10 04:09:54;;;;;;;13.05;11.82;;;;;;;15.97;79.55;101325.16;5023799;28;20068;-85
2021/06/10 04:12:20;;;;;;;12.75;11.57;;;;;;;16.04;79.29;101316.19;5002016;28;20500;-85
2021/06/10 04:14:46;;;;;;;12.18;11.07;;;;;;;16.09;79.02;101315.22;4992328;28;20069;-86
2021/06/10 04:17:12;;;;;;;19.58;13.10;;;;;;;16.15;78.78;101325.66;5033044;28;20054;-86
2021/06/10 04:19:40;;;;;;;14.73;13.05;;;;;;;16.22;78.37;101327.28;5051351;28;20053;-84
2021/06/10 04:22:13;;;;;;;14.65;13.20;;;;;;;16.29;78.18;101328.00;5043208;28;20666;-86
2021/06/10 04:24:39;;;;;;;14.93;13.52;;;;;;;16.37;78.03;101326.06;5003578;28;20045;-85
2021/06/10 04:27:11;;;;;;;15.60;13.82;;;;;;;16.46;78.07;101331.13;4984235;28;20563;-86
2021/06/10 04:29:39;;;;;;;19.33;17.00;;;;;;;16.53;78.05;101329.22;5004730;28;20456;-86
2021/06/10 04:32:06;;;;;;;18.58;16.67;;;;;;;16.59;78.38;101329.09;5007727;28;20072;-86
2021/06/10 04:34:39;;;;;;;18.45;16.17;;;;;;;16.65;78.52;101330.72;5008908;28;20056;-86
2021/06/10 04:37:06;;;;;;;19.58;17.05;;;;;;;16.67;78.40;101328.91;4974904;28;20042;-86
2021/06/10 04:39:32;;;;;;;28.77;16.77;;;;;;;16.65;78.41;101336.03;4975789;28;20149;-85
2021/06/10 04:41:58;;;;;;;21.10;17.42;;;;;;;16.64;78.21;101329.00;5006692;28;20041;-86
2021/06/10 04:44:27;;;;;;;18.73;16.17;;;;;;;16.61;78.01;101327.28;5006298;28;20263;-86
2021/06/10 04:46:53;;;;;;;18.30;16.50;;;;;;;16.59;78.03;101326.44;4976998;28;20045;-87
2021/06/10 04:49:19;;;;;;;16.90;15.20;;;;;;;16.65;77.99;101325.44;5005255;28;20049;-85
2021/06/10 04:51:46;;;;;;;17.50;14.68;;;;;;;16.70;77.95;101327.06;5006203;28;20143;-86
2021/06/10 04:54:13;;;;;;;18.05;14.70;;;;;;;16.76;77.76;101336.63;5006820;28;20053;-87
2021/06/10 04:56:45;;;;;;;15.65;14.13;;;;;;;16.83;77.39;101327.66;4992161;28;20044;-87
2021/06/10 04:59:13;;;;;;;17.13;15.32;;;;;;;16.85;76.97;101336.38;5004664;28;20049;-86
2021/06/10 05:01:41;;;;;;;14.00;12.38;;;;;;;16.86;76.68;101332.00;4978106;28;20052;-87
2021/06/10 05:04:08;;;;;;;15.55;13.95;;;;;;;16.84;76.69;101329.38;5010270;28;20113;-87
2021/06/10 05:06:37;;;;;;;13.75;12.45;;;;;;;16.87;76.81;101333.72;4992406;28;20060;-86
2021/06/10 05:09:05;;;;;;;14.15;12.73;;;;;;;16.92;76.58;101331.00;4993582;28;20256;-88
2021/06/10 05:11:33;;;;;;;14.10;12.48;;;;;;;16.99;76.33;101336.09;5021565;28;20047;-86
2021/06/10 05:13:59;;;;;;;14.43;12.57;;;;;;;17.04;76.00;101341.28;4996430;28;20416;-86
2021/06/10 05:16:29;;;;;;;14.23;11.57;;;;;;;17.08;75.95;101342.94;4973730;28;20057;-86
2021/06/10 05:18:56;;;;;;;14.82;13.32;;;;;;;17.13;75.65;101340.16;5018680;28;20038;-86
2021/06/10 05:21:22;;;;;;;16.60;12.52;;;;;;;17.17;75.03;101345.34;5021604;28;20132;-84
2021/06/10 05:23:48;;;;;;;13.57;12.27;;;;;;;17.22;74.78;101344.34;5015563;28;20050;-86
2021/06/10 05:26:15;;;;;;;13.95;12.48;;;;;;;17.29;74.32;101338.00;4992682;28;20041;-84
2021/06/10 05:28:43;;;;;;;14.13;12.77;;;;;;;17.37;73.89;101341.31;5028058;28;20844;-86
2021/06/10 05:31:12;;;;;;;14.57;13.10;;;;;;;17.42;73.18;101330.63;4975051;28;20450;-87
2021/06/10 05:33:39;;;;;;;15.02;13.57;;;;;;;17.47;72.66;101334.88;4992535;28;20037;-87
2021/06/10 05:36:06;;;;;;;15.50;12.90;;;;;;;17.51;72.20;101328.59;4985608;28;20076;-86
2021/06/10 05:38:34;;;;;;;16.08;13.95;;;;;;;17.60;71.89;101332.75;4991517;28;20118;-86
2021/06/10 05:41:02;;;;;;;19.55;13.85;;;;;;;17.67;71.83;101339.63;5006532;28;20065;-87
2021/06/10 05:43:30;;;;;;;14.30;12.90;;;;;;;17.74;72.20;101342.94;4973483;28;20056;-85
2021/06/10 05:45:58;;;;;;;17.10;14.57;;;;;;;17.78;72.34;101341.97;4990355;28;20046;-85
2021/06/10 05:48:26;;;;;;;17.92;15.18;;;;;;;17.84;72.33;101335.63;4989346;28;20056;-86
2021/06/10 05:50:53;;;;;;;21.50;14.70;;;;;;;17.85;72.51;101332.06;4960933;28;20050;-86
2021/06/10 05:53:19;;;;;;;15.10;12.73;;;;;;;17.91;72.67;101338.97;4992047;28;20058;-84
2021/06/10 05:55:46;;;;;;;15.38;13.73;;;;;;;18.01;72.48;101340.47;4972424;28;20053;-86
2021/06/10 05:58:14;;;;;;;15.48;13.88;;;;;;;18.13;72.19;101334.84;4998256;28;20045;-86
2021/06/10 06:00:45;;;;;;;14.48;13.07;;;;;;;18.24;71.95;101338.91;4967587;28;20054;-84
2021/06/10 06:03:13;;;;;;;16.08;14.00;;;;;;;18.37;71.50;101336.75;5013295;28;20127;-87
2021/06/10 06:05:40;;;;;;;14.07;12.63;;;;;;;18.50;71.25;101339.00;4995367;28;20061;-87
2021/06/10 06:08:07;;;;;;;17.90;14.98;;;;;;;18.67;70.71;101345.56;4997122;28;20049;-85
2021/06/10 06:10:35;;;;;;;22.45;16.33;;;;;;;18.80;70.37;101346.91;4981848;28;20088;-84
2021/06/10 06:13:08;;;;;;;17.25;15.50;;;;;;;18.87;70.28;101344.06;5010251;28;20132;-85
2021/06/10 06:15:34;;;;;;;17.30;15.50;;;;;;;18.97;70.22;101350.84;5010808;28;20401;-88
2021/06/10 06:18:04;;;;;;;22.50;16.83;;;;;;;19.05;70.59;101348.78;4979092;28;20053;-84
2021/06/10 06:20:31;;;;;;;19.25;16.27;;;;;;;19.08;70.54;101353.97;4995379;28;20053;-85
2021/06/10 06:23:04;;;;;;;19.55;15.93;;;;;;;19.22;70.44;101350.88;4969671;28;20057;-88
2021/06/10 06:25:30;;;;;;;16.88;14.27;;;;;;;19.37;70.16;101348.59;4956948;28;20903;-88
2021/06/10 06:27:57;;;;;;;15.45;13.88;;;;;;;19.50;69.91;101349.91;4981328;28;20053;-86
2021/06/10 06:30:23;;;;;;;18.02;16.15;;;;;;;19.62;69.74;101356.56;4974390;28;20610;-88
2021/06/10 06:32:52;;;;;;;20.45;15.40;;;;;;;19.70;69.69;101351.84;4976447;28;20412;-87
2021/06/10 06:35:18;;;;;;;17.77;15.05;;;;;;;19.80;69.52;101357.69;4980104;28;20046;-85
2021/06/10 06:37:44;;;;;;;20.17;15.82;;;;;;;19.92;69.37;101362.59;4991930;28;20041;-84
2021/06/10 06:40:13;;;;;;;20.08;16.30;;;;;;;20.10;68.76;101357.50;5024786;28;20140;-85
2021/06/10 06:42:42;;;;;;;14.40;12.93;;;;;;;20.28;68.52;101362.13;5009420;28;20048;-87
2021/06/10 06:45:11;;;;;;;17.25;15.57;;;;;;;20.47;68.02;101366.75;5010756;28;20054;-88
2021/06/10 06:47:39;;;;;;;17.20;15.40;;;;;;;20.64;67.76;101368.75;5026905;28;23085;-87
2021/06/10 06:50:05;;;;;;;18.85;14.23;;;;;;;20.76;67.50;101362.94;4986041;28;20088;-83
2021/06/10 06:52:31;;;;;;;19.00;14.50;;;;;;;20.84;67.27;101367.97;5010671;28;20064;-85
2021/06/10 06:54:58;;;;;;;14.23;12.68;;;;;;;20.96;66.96;101364.81;5040081;28;20168;-87
2021/06/10 06:57:25;;;;;;;16.70;13.98;;;;;;;21.09;66.66;101361.63;5043234;28;20516;-84
2021/06/10 06:59:51;;;;;;;13.80;12.20;;;;;;;21.12;66.34;101364.19;5006006;28;20073;-84
2021/06/10 07:02:17;;;;;;;14.32;12.93;;;;;;;21.11;66.11;101355.31;5039817;28;20041;-85
2021/06/10 07:04:43;;;;;;;18.02;14.30;;;;;;;21.09;66.15;101359.84;5049331;28;20728;-87
2021/06/10 07:07:09;;;;;;;16.17;12.55;;;;;;;21.12;66.07;101358.84;5027928;28;20069;-85
2021/06/10 07:09:38;;;;;;;13.98;12.57;;;;;;;21.18;65.84;101363.91;5016800;28;20119;-86
2021/06/10 07:12:08;;;;;;;16.20;14.40;;;;;;;21.31;65.37;101362.47;5042422;28;20062;-87
2021/06/10 07:14:44;;;;;;;14.35;12.90;;;;;;;21.39;65.17;101363.91;5046436;28;20132;-88
2021/06/10 07:17:24;;;;;;;16.48;14.80;;;;;;;21.54;64.66;101365.06;5000159;28;20092;-86
2021/06/10 07:20:10;;;;;;;16.08;14.43;;;;;;;21.70;64.11;101358.16;4996770;28;20111;-87
2021/06/10 07:22:39;;;;;;;16.77;15.10;;;;;;;21.87;63.48;101367.19;5006287;28;20049;-87
2021/06/10 07:25:13;;;;;;;12.98;11.77;;;;;;;22.11;62.86;101359.84;5029624;28;20057;-86
2021/06/10 07:27:41;;;;;;;15.55;13.95;;;;;;;22.41;62.23;101368.28;5010077;28;20041;-85
2021/06/10 07:30:08;;;;;;;17.42;15.68;;;;;;;22.68;60.84;101370.53;5022584;28;20046;-88
2021/06/10 07:32:39;;;;;;;14.73;13.32;;;;;;;22.90;60.78;101369.50;5026001;28;20100;-87
2021/06/10 07:35:06;;;;;;;17.70;15.68;;;;;;;23.22;59.80;101367.03;5013690;28;20049;-87
2021/06/10 07:37:33;;;;;;;16.23;13.63;;;;;;;23.61;59.37;101364.13;5044321;28;20457;-87
2021/06/10 07:39:59;;;;;;;15.75;14.15;;;;;;;23.95;58.00;101380.22;5027981;28;20128;-86
2021/06/10 07:42:27;;;;;;;14.07;12.85;;;;;;;24.27;57.34;101372.25;4978109;28;20083;-85
2021/06/10 07:44:54;;;;;;;14.70;13.25;;;;;;;24.63;56.29;101368.50;5047070;28;20064;-83
2021/06/10 07:47:20;;;;;;;14.68;12.95;;;;;;;24.86;55.26;101369.84;5030468;28;20160;-84
2021/06/10 07:49:50;;;;;;;14.77;13.45;;;;;;;25.07;54.54;101372.19;5022524;28;20071;-86
2021/06/10 07:52:18;;;;;;;13.32;12.18;;;;;;;25.15;54.25;101375.31;5038068;28;20132;-88
2021/06/10 07:54:44;;;;;;;14.25;12.75;;;;;;;25.48;53.43;101378.78;5042734;28;20293;-84
2021/06/10 07:57:11;;;;;;;15.70;13.48;;;;;;;25.42;52.41;101388.91;4999740;28;20064;-88
2021/06/10 07:59:38;;;;;;;16.65;13.60;;;;;;;25.67;51.92;101387.44;5030507;28;20049;-86
2021/06/10 08:02:08;;;;;;;15.00;13.60;;;;;;;26.03;50.80;101395.97;5007587;28;20064;-85
2021/06/10 08:04:35;;;;;;;15.30;13.90;;;;;;;26.47;49.41;101386.94;5029972;28;20053;-85
2021/06/10 08:07:01;;;;;;;14.18;13.05;;;;;;;26.88;48.60;101388.78;4993544;28;20464;-87
2021/06/10 08:09:32;;;;;;;19.08;13.25;;;;;;;27.42;47.45;101387.00;5046433;28;20046;-88
2021/06/10 08:12:07;;;;;;;13.10;11.80;;;;;;;27.98;46.47;101385.84;5012367;28;20629;-88
2021/06/10 08:14:38;;;;;;;12.90;11.80;;;;;;;28.26;45.37;101382.03;5038762;28;20053;-88
2021/06/10 08:17:04;;;;;;;14.40;13.00;;;;;;;28.01;45.46;101381.06;5011081;28;20128;-88
2021/06/10 08:19:32;;;;;;;13.63;12.63;;;;;;;27.74;46.52;101383.88;5018429;28;20045;-83
2021/06/10 08:22:03;;;;;;;18.73;13.15;;;;;;;27.53;46.94;101391.63;5027012;28;20045;-87
2021/06/10 08:24:29;;;;;;;12.70;11.48;;;;;;;27.60;47.05;101387.56;5042751;28;20052;-86
2021/06/10 08:26:57;;;;;;;12.80;11.60;;;;;;;27.82;46.59;101386.03;5029637;28;20060;-84
2021/06/10 08:29:28;;;;;;;14.60;13.20;;;;;;;28.25;45.22;101388.38;5012191;28;20045;-85
2021/06/10 08:31:58;;;;;;;15.48;14.07;;;;;;;28.75;44.56;101391.06;5010949;28;20081;-87
2021/06/10 08:34:26;;;;;;;15.02;13.68;;;;;;;29.29;43.69;101394.25;5018308;28;20054;-85
2021/06/10 08:36:53;;;;;;;15.13;12.80;;;;;;;29.83;42.58;101398.19;5003743;28;20058;-86
2021/06/10 08:39:22;;;;;;;14.20;13.00;;;;;;;30.23;41.95;101396.84;5029583;28;20049;-85
2021/06/10 08:41:48;;;;;;;16.98;15.05;;;;;;;30.34;40.61;101400.41;5027767;28;20053;-84
2021/06/10 08:44:17;;;;;;;14.43;12.95;;;;;;;30.39;39.86;101399.16;5010029;28;20128;-86
2021/06/10 08:46:44;;;;;;;14.98;13.63;;;;;;;30.42;39.48;101401.63;5043757;28;21253;-86
2021/06/10 08:49:14;;;;;;;16.35;14.85;;;;;;;30.66;39.00;101398.75;5027341;28;20113;-86
2021/06/10 08:51:40;;;;;;;13.73;12.57;;;;;;;30.72;39.41;101403.66;4981080;28;20136;-84
2021/06/10 08:54:08;;;;;;;15.65;14.18;;;;;;;30.72;38.83;101402.81;5014291;28;20045;-86
2021/06/10 08:56:37;;;;;;;16.23;14.73;;;;;;;30.73;38.68;101409.91;5021879;28;20147;-86
2021/06/10 08:59:06;;;;;;;17.50;15.77;;;;;;;30.29;38.58;101408.00;5030159;28;20073;-87
2021/06/10 09:01:35;;;;;;;16.10;14.70;;;;;;;30.05;39.15;101415.38;4994196;28;20203;-86
2021/06/10 09:04:01;;;;;;;16.35;14.90;;;;;;;30.26;39.24;101410.97;5012947;28;20064;-88
2021/06/10 09:06:50;;;;;;;17.35;14.10;;;;;;;30.60;38.35;101402.84;5015252;28;20041;-89
2021/06/10 09:09:22;;;;;;;17.10;15.48;;;;;;;30.98;37.31;101411.44;5013368;28;20046;-86
2021/06/10 09:11:49;;;;;;;16.83;15.35;;;;;;;31.35;36.61;101408.34;5045803;28;20129;-89
2021/06/10 09:14:15;;;;;;;16.83;15.30;;;;;;;31.61;35.37;101403.41;4995894;28;20045;-86
2021/06/10 09:16:44;;;;;;;16.48;14.98;;;;;;;31.94;34.58;101414.13;4978688;28;20056;-85
2021/06/10 09:19:16;;;;;;;19.05;17.33;;;;;;;31.90;33.64;101405.44;5009655;28;20057;-89
2021/06/10 09:21:57;;;;;;;;;;;;;;;31.77;34.14;101407.50;5031669;28;20088;-84
2021/06/10 09:24:33;;;;;;;18.20;16.38;;;;;;;32.38;34.05;101403.91;5030237;28;19925;-88
2021/06/10 09:27:14;;;;;;;15.75;14.45;;;;;;;32.65;32.85;101400.56;5009088;28;20589;-88
2021/06/10 09:29:52;;;;;;;18.05;16.40;;;;;;;32.53;33.17;101406.22;5028557;28;20049;-89
2021/06/10 09:32:30;;;;;;;16.42;14.90;;;;;;;32.67;32.36;101403.13;5024490;28;20056;-89
2021/06/10 09:35:01;;;;;;;18.10;15.90;;;;;;;32.77;32.34;101403.19;4998441;28;20238;-88
2021/06/10 09:37:35;;;;;;;17.05;15.55;;;;;;;33.11;31.76;101410.91;4996909;28;20057;-88
2021/06/10 09:43:17;;;;;;;16.10;14.80;;;;;;;33.66;30.97;101404.81;5021379;28;20053;-89
2021/06/10 09:45:49;;;;;;;12.98;11.98;;;;;;;33.98;30.39;101406.34;5057409;28;20084;-88
2021/06/10 09:49:21;;;;;;;18.13;16.40;;;;;;;33.90;29.49;101411.66;5023181;28;20080;-85
2021/06/10 09:51:54;;;;;;;15.73;14.45;;;;;;;34.03;29.85;101411.31;5031806;28;20049;-87
2021/06/10 09:54:49;;;;;;;15.95;13.95;;;;;;;34.00;29.69;101406.19;4998334;28;20050;-85
2021/06/10 09:57:16;;;;;;;13.20;12.02;;;;;;;34.50;29.17;101408.53;5030768;28;20045;-87
2021/06/10 09:59:55;;;;;;;15.25;13.82;;;;;;;34.82;28.51;101414.47;5047078;28;20401;-87
2021/06/10 10:02:29;;;;;;;14.80;13.57;;;;;;;34.88;28.95;101414.72;5014709;28;20046;-85
2021/06/10 10:05:08;;;;;;;17.42;15.93;;;;;;;34.94;28.07;101415.94;5001344;28;20627;-83
2021/06/10 10:07:38;;;;;;;16.05;14.73;;;;;;;35.01;27.90;101410.78;5014456;28;20048;-86
2021/06/10 10:10:11;;;;;;;13.80;12.50;;;;;;;35.38;27.73;101404.28;5003636;28;20077;-88
2021/06/10 10:12:40;;;;;;;11.32;10.32;;;;;;;35.64;26.97;101400.72;5017569;28;20048;-89
2021/06/10 10:15:12;;;;;;;13.77;10.05;;;;;;;35.76;25.48;101410.31;5034178;28;20049;-86
2021/06/10 10:17:41;;;;;;;12.60;11.50;;;;;;;35.70;25.18;101402.81;5023160;28;20053;-86
2021/06/10 10:20:11;;;;;;;13.63;12.45;;;;;;;35.51;25.87;101403.88;5031927;28;20111;-88
2021/06/10 10:22:42;;;;;;;11.10;10.00;;;;;;;35.07;24.55;101404.69;4987986;28;20045;-86
2021/06/10 10:25:09;;;;;;;10.38;9.48;;;;;;;34.25;25.76;101404.63;5032689;28;20049;-88
2021/06/10 10:27:36;;;;;;;6.53;6.10;;;;;;;34.64;25.76;101396.28;5023355;28;20119;-87
2021/06/10 10:30:07;;;;;;;5.88;5.47;;;;;;;35.04;23.96;101394.97;5038362;28;20123;-88
2021/06/10 10:32:35;;;;;;;4.60;4.20;;;;;;;35.01;22.56;101400.72;5060525;28;20057;-87
2021/06/10 10:35:32;;;;;;;3.95;3.63;;;;;;;35.25;21.08;101389.22;5033258;28;20103;-86
2021/06/10 10:38:11;;;;;;;4.85;4.55;;;;;;;35.64;20.87;101389.81;5030694;28;20145;-87
2021/06/10 10:40:40;;;;;;;4.47;4.18;;;;;;;36.16;21.01;101392.47;5032350;28;20049;-87
2021/06/10 10:43:14;;;;;;;4.13;3.92;;;;;;;36.50;20.07;101390.75;5043421;28;20496;-84
2021/06/10 10:45:44;;;;;;;5.18;4.03;;;;;;;36.16;20.38;101383.47;5014487;28;20049;-84
2021/06/10 10:48:12;;;;;;;4.70;4.40;;;;;;;35.74;20.99;101382.41;5028521;28;20146;-87
2021/06/10 10:50:44;;;;;;;3.90;3.60;;;;;;;36.07;20.84;101383.41;5008143;28;20690;-88
2021/06/10 10:53:21;;;;;;;5.88;5.40;;;;;;;35.87;21.56;101382.81;5035607;28;20107;-89
2021/06/10 10:56:04;;;;;;;6.18;5.70;;;;;;;35.76;21.61;101378.50;5049839;28;20045;-86
2021/06/10 10:58:30;;;;;;;7.50;5.88;;;;;;;36.21;21.96;101371.03;5035756;28;20504;-87
2021/06/10 11:00:59;;;;;;;6.35;4.97;;;;;;;36.46;21.41;101373.84;5022477;28;20076;-85
2021/06/10 11:03:43;;;;;;;4.32;3.92;;;;;;;36.62;20.48;101383.94;5013720;28;20815;-87
2021/06/10 11:06:25;;;;;;;5.35;4.93;;;;;;;36.22;20.14;101374.63;5017320;28;20049;-88
2021/06/10 11:09:15;;;;;;;;;;;;;;;35.99;20.54;101372.50;5034403;28;20061;-85
2021/06/10 11:12:10;;;;;;;3.47;3.17;;;;;;;37.32;19.04;101371.72;5024521;28;19971;-86
2021/06/10 11:21:09;;;;;;;4.80;3.83;;;;;;;39.53;17.24;101369.75;5052528;28;20029;-86
2021/06/10 11:24:11;;;;;;;4.00;3.70;;;;;;;39.52;17.35;101374.41;5041368;28;20057;-88
2021/06/10 11:28:15;;;;;;;;;;;;;;;;;;;;;
2021/06/10 11:34:53;;;;;;;3.72;3.53;;;;;;;39.11;17.17;101372.03;5005418;28;20085;-86
2021/06/10 11:37:45;;;;;;;3.80;3.50;;;;;;;38.59;18.18;101376.38;5023718;28;20060;-86
2021/06/10 11:40:14;;;;;;;3.45;3.25;;;;;;;38.18;17.43;101371.97;5011050;28;20080;-86